Varrelbusch Airport

EDWU · Niedersachsen, Deutschland

METAR-Geschichte EDWU · Varrelbusch Airport

Unten siehst du die METARs der letzten paar Tage. Wähle ein Jahr, um ältere METARs ab dem Jahr 2007 zu durchsuchen.

29. November 2022

Uhrzeit Code Wetter Temp. Sichtweite Wolkendecke Wind METAR/SPECI
11:20
L
7 °C 500 m 100 ft 150° 150° 1 kt METAR ETND 291020Z 15001KT 0500 R26/0650N -DZ FG OVC001 07/07 Q1017 RED RED BECMG AMB
11:20
L
7 °C 500 m 100 ft 150° 150° 1 kt METAR ETND 291020Z 15001KT 0500 R26/0650N -DZ FG OVC001 07/07 Q1017 RED RED BECMG AMB
10:20
L
7 °C 250 m 100 ft 130° 130° 1 kt METAR ETND 290920Z 13001KT 0250 R26/0650N -DZ FG OVC001 07/07 Q1017 RED RED BECMG AMB
09:20
L
7 °C 200 m 100 ft 170° 170° 2 kt METAR ETND 290820Z 17002KT 0200 R26/0750N -DZ FG OVC001 07/07 Q1016 RED RED
09:00
L
6 °C 200 m 100 ft 150° 150° 2 kt METAR ETND 290800Z 15002KT 0200 R26/0650N -DZ FG OVC001 06/06 Q1016 RED RED
08:20
L
6 °C 300 m 200 ft 180° 180° 2 kt METAR ETND 290720Z 18002KT 0300 FG OVC002 06/06 Q1016 RED RED
07:20
L
6 °C 200 m 200 ft 120° 120° 1 kt METAR ETND 290620Z 12001KT 0200 FG VV002 06/06 Q1015 RED RED
06:20
L
6 °C 50 m 100 ft 160° 160° 1 kt METAR ETND 290520Z 16001KT 0050 FG VV001 06/06 Q1015 RED RED
06:13
L
6 °C 50 m 100 ft 160° 160° 1 kt METAR ETND 290513Z 16001KT 0050 FG VV001 06/06 Q1015 RED RED

28. November 2022

Uhrzeit Code Wetter Temp. Sichtweite Wolkendecke Wind METAR/SPECI
15:20
M
6 °C 7 km 1.400 ft 130° 130° 4 kt METAR ETND 281420Z 13004KT 7000 -RA BKN014 06/05 Q1011 GRN
15:00
M
6 °C 7 km 1.500 ft 130° 130° 3 kt METAR ETND 281400Z 13003KT 7000 -RA BKN015 06/05 Q1011 WHT FCST CANCEL
14:20
M
6 °C 8 km 1.600 ft 150° 150° 4 kt METAR ETND 281320Z 15004KT 8000 -RA BKN016 06/05 Q1011 WHT WHT BECMG GRN
13:56
M
6 °C 8 km 2.400 ft 140° 140° 4 kt METAR ETND 281256Z 14004KT 8000 -RA BKN024 BKN039 06/05 Q1011 WHT WHT BECMG GRN
13:20
V
6 °C 10 km+ 5.000 ft 120° 120° 5 kt METAR ETND 281220Z 12005KT 9999 FEW023 BKN050 06/05 Q1011 BLU BLU BECMG GRN
12:20
V
6 °C 10 km+ 5.200 ft 130° 130° 6 kt METAR ETND 281120Z 13006KT 9999 FEW020 BKN052 BKN060 06/05 Q1011 BLU BLU TEMPO GRN
11:20
V
6 °C 10 km+ 5.000 ft 130° 130° 6 kt METAR ETND 281020Z 13006KT 9999 FEW040 BKN050 06/05 Q1011 BLU BLU TEMPO GRN
10:43
V
6 °C 8 km 5.000 ft 120° 120° 7 kt METAR ETND 280943Z 12007KT 8000 -RA FEW020 BKN050 06/05 Q1011 BLU BLU TEMPO GRN
10:20
M
5 °C 7 km 4.000 ft 120° 120° 6 kt METAR ETND 280920Z 12006KT 7000 -RA FEW018 BKN040 OVC060 05/05 Q1011 WHT BLU TEMPO GRN
09:20
M
5 °C 7 km 3.300 ft 130° 130° 6 kt METAR ETND 280820Z 13006KT 7000 -RA FEW026 BKN033 05/05 Q1011 WHT BLU TEMPO GRN
08:20
M
5 °C 5 km 1.800 ft 120° 120° 6 kt METAR ETND 280720Z 12006KT 5000 -RA BR FEW015 BKN018 05/05 Q1011 WHT BLU TEMPO GRN
07:48
M
5 °C 7 km 1.900 ft 130° 130° 7 kt METAR ETND 280648Z 13007KT 7000 -RA BKN019 05/05 Q1011 WHT BLU TEMPO GRN
07:20
M
5 °C 10 km+ 1.800 ft 140° 140° 4 kt METAR ETND 280620Z 14004KT 9999 -RA BKN018 05/05 Q1011 WHT BLU TEMPO GRN
06:20
M
5 °C 10 km+ 2.000 ft 140° 140° 5 kt METAR ETND 280520Z 14005KT 9999 -RA BKN020 BKN045 05/04 Q1011 WHT BLU TEMPO GRN

Wir und Dritte verfolgen dein Internetverhalten auf unserer Website mit Cookies. Wenn du fortfährst, gehen wir davon aus, dass du mit unserer Cookie-Richtlinie einverstanden bist.